Aviation Digital Data Service (ADDS)

Output produced by METARs form (0248 UTC 18 June 2019)
found at http://www.aviationweather.gov/metar/data/
 
Forecast for: WIHH (HALIM PERDANAKUS, ID)
Text: TAF WIHH 172300Z 1800/1900 07010KT 7000 SCT020
Forecast period: 0000 to 0600 UTC 18 June 2019
Forecast type: FROM: standard forecast or significant change
Winds: from the ENE (70 degrees) at 12 MPH (10 knots; 5.1 m/s)
Visibility: 4 miles (7 km)
Ceiling: at least 12,000 feet AGL
Clouds: scattered clouds at 2000 feet AGL
Weather: no significant weather forecast for this period
Text: BECMG 1806/1808 5000 HZ
Forecast period: 0600 UTC 18 June 2019 to 0000 UTC 19 June 2019
Forecast type: BECOMING: Conditions expected to become as follows by 0800 UTC 18 June 2019
Winds: from the ENE (70 degrees) at 12 MPH (10 knots; 5.1 m/s)
Visibility: 3 miles (5 km)
Ceiling: at least 12,000 feet AGL
Clouds: scattered clouds at 2000 feet AGL
Weather: HZ  (haze)